createdAt,value
2022-09-28T00:00:19.056Z,96748.19
2022-09-28T00:01:21.812Z,96745.56
2022-09-28T00:02:23.328Z,96739.94
2022-09-28T00:03:24.764Z,96736.09
2022-09-28T00:04:26.096Z,96738.75
2022-09-28T00:05:27.398Z,96733.22
2022-09-28T00:06:29.797Z,96722.66
2022-09-28T00:07:31.166Z,96723.41
2022-09-28T00:08:32.988Z,96728.22
2022-09-28T00:09:34.271Z,96720.94
2022-09-28T00:10:35.596Z,96717.53
2022-09-28T00:11:36.905Z,96711.47
2022-09-28T00:12:38.266Z,96719.00
2022-09-28T00:13:39.979Z,96714.13
2022-09-28T00:14:41.273Z,96713.25
2022-09-28T00:15:42.600Z,96711.06
2022-09-28T00:16:44.194Z,96705.00
2022-09-28T00:17:45.547Z,96696.84
2022-09-28T00:18:46.997Z,96694.25
2022-09-28T00:19:48.300Z,96694.50
2022-09-28T00:20:59.126Z,96692.31
2022-09-28T00:22:00.453Z,96688.13
2022-09-28T00:23:01.777Z,96690.84
2022-09-28T00:24:04.792Z,96683.25
2022-09-28T00:25:06.669Z,96682.50
2022-09-28T00:26:07.978Z,96678.41
2022-09-28T00:27:09.277Z,96684.69
2022-09-28T00:28:10.606Z,96676.75
2022-09-28T00:29:16.728Z,96675.56
2022-09-28T00:30:18.142Z,96678.97
2022-09-28T00:31:19.599Z,96674.91
2022-09-28T00:32:20.940Z,96674.56
2022-09-28T00:33:22.345Z,96672.28
2022-09-28T00:34:23.695Z,96670.72
2022-09-28T00:35:25.046Z,96667.28
2022-09-28T00:36:30.250Z,96664.75
2022-09-28T00:37:31.600Z,96660.69
2022-09-28T00:38:32.918Z,96663.22
2022-09-28T00:39:34.655Z,96655.72
2022-09-28T00:40:36.026Z,96653.41
2022-09-28T00:41:37.366Z,96650.88
2022-09-28T00:42:38.689Z,96655.47
2022-09-28T00:43:40.230Z,96658.81
2022-09-28T00:44:42.697Z,96661.00
2022-09-28T00:45:44.568Z,96656.56
2022-09-28T00:46:45.969Z,96656.47
2022-09-28T00:47:49.495Z,96655.81
2022-09-28T00:48:54.857Z,96649.31
2022-09-28T00:50:05.332Z,96650.53
2022-09-28T00:51:08.957Z,96641.47
2022-09-28T00:52:14.278Z,96641.69
2022-09-28T00:53:24.045Z,96640.88
2022-09-28T00:54:25.424Z,96640.66
2022-09-28T00:55:31.549Z,96642.84
2022-09-28T00:56:35.946Z,96637.16
2022-09-28T00:57:39.906Z,96640.13
2022-09-28T00:58:46.769Z,96639.03
2022-09-28T00:59:48.350Z,96632.53
2022-09-28T01:00:49.724Z,96627.75
2022-09-28T01:01:51.129Z,96630.41
2022-09-28T01:02:52.645Z,96626.31
2022-09-28T01:03:53.978Z,96622.16
2022-09-28T01:04:56.281Z,96613.41
2022-09-28T01:05:59.011Z,96615.22
2022-09-28T01:07:00.650Z,96613.00
2022-09-28T01:08:03.290Z,96614.53
2022-09-28T01:09:07.258Z,96614.22
2022-09-28T01:10:08.797Z,96601.31
2022-09-28T01:11:10.218Z,96604.41
2022-09-28T01:12:11.666Z,96600.53
2022-09-28T01:13:13.998Z,96601.66
2022-09-28T01:14:16.319Z,96596.38
2022-09-28T01:15:18.541Z,96585.44
2022-09-28T01:16:19.938Z,96589.28
2022-09-28T01:17:30.662Z,96596.78
2022-09-28T01:18:40.518Z,96593.72
2022-09-28T01:19:44.450Z,96587.97
2022-09-28T01:20:51.753Z,96585.78
2022-09-28T01:22:07.656Z,96574.44
2022-09-28T01:23:14.903Z,96572.97
2022-09-28T01:24:16.395Z,96570.69
2022-09-28T01:25:20.335Z,96570.00
2022-09-28T01:26:33.922Z,96569.25
2022-09-28T01:27:38.252Z,96566.59
2022-09-28T01:28:43.154Z,96574.19
2022-09-28T01:30:07.667Z,96565.47
2022-09-28T01:31:13.189Z,96556.78
2022-09-28T01:32:29.212Z,96553.38
2022-09-28T01:33:34.423Z,96552.59
2022-09-28T01:34:39.917Z,96547.28
2022-09-28T01:35:48.926Z,96538.69
2022-09-28T01:36:53.504Z,96537.56
2022-09-28T01:38:03.143Z,96543.63
2022-09-28T01:39:09.169Z,96533.75
2022-09-28T01:40:12.013Z,96533.03
2022-09-28T01:41:13.621Z,96531.88
2022-09-28T01:42:19.823Z,96524.28
2022-09-28T01:43:23.442Z,96525.81
2022-09-28T01:44:25.297Z,96527.25
2022-09-28T01:45:33.859Z,96527.94
2022-09-28T01:46:40.502Z,96523.06
2022-09-28T01:47:43.130Z,96521.28
2022-09-28T01:48:54.773Z,96515.56
2022-09-28T01:50:00.433Z,96512.22
2022-09-28T01:51:04.326Z,96514.97
2022-09-28T01:52:19.766Z,96506.94
2022-09-28T01:53:26.818Z,96508.47
2022-09-28T01:54:34.538Z,96502.84
2022-09-28T01:55:57.474Z,96501.75
2022-09-28T01:57:09.020Z,96498.34
2022-09-28T01:58:24.632Z,96502.50
2022-09-28T01:59:28.928Z,96494.91
2022-09-28T02:00:32.416Z,96494.56
2022-09-28T02:01:38.738Z,96490.03
2022-09-28T02:03:07.175Z,96492.69
2022-09-28T02:04:21.253Z,96494.56
2022-09-28T02:05:33.699Z,96492.34
2022-09-28T02:06:37.054Z,96493.53
2022-09-28T02:07:40.606Z,96494.72
2022-09-28T02:09:03.478Z,96486.47
2022-09-28T02:10:16.520Z,96488.13
2022-09-28T02:11:19.143Z,96485.06
2022-09-28T02:12:24.573Z,96484.31
2022-09-28T02:13:34.495Z,96482.44
2022-09-28T02:14:38.480Z,96484.13
2022-09-28T02:15:46.510Z,96482.25
2022-09-28T02:16:49.296Z,96478.84
2022-09-28T02:17:51.150Z,96472.00
2022-09-28T02:18:52.525Z,96472.06
2022-09-28T02:19:54.013Z,96470.97
2022-09-28T02:21:08.868Z,96468.41
2022-09-28T02:22:12.973Z,96469.66
2022-09-28T02:23:15.206Z,96470.84
2022-09-28T02:24:21.574Z,96461.72
2022-09-28T02:25:29.861Z,96458.31
2022-09-28T02:26:34.976Z,96462.16
2022-09-28T02:27:40.978Z,96464.03
2022-09-28T02:28:42.789Z,96460.34
2022-09-28T02:29:44.167Z,96455.53
2022-09-28T02:30:45.950Z,96455.25
2022-09-28T02:31:49.016Z,96460.13
2022-09-28T02:32:51.364Z,96458.94
2022-09-28T02:33:53.670Z,96457.47
2022-09-28T02:34:55.215Z,96462.00
2022-09-28T02:35:57.626Z,96455.94
2022-09-28T02:37:01.004Z,96459.38
2022-09-28T02:38:02.370Z,96453.75
2022-09-28T02:39:03.798Z,96462.78
2022-09-28T02:40:18.663Z,96459.13
2022-09-28T02:41:43.221Z,96453.81
2022-09-28T02:42:52.885Z,96458.78
2022-09-28T02:44:07.705Z,96456.34
2022-09-28T02:45:29.647Z,96447.19
2022-09-28T02:46:31.011Z,96450.28
2022-09-28T02:48:08.157Z,96450.97
2022-09-28T02:49:21.283Z,96448.31
2022-09-28T02:50:40.679Z,96450.56
2022-09-28T02:51:50.080Z,96446.03
2022-09-28T02:53:00.451Z,96443.72
2022-09-28T02:54:04.811Z,96437.03
2022-09-28T02:55:12.197Z,96440.88
2022-09-28T02:56:20.609Z,96434.81
2022-09-28T02:57:46.342Z,96437.53
2022-09-28T02:59:06.365Z,96433.84
2022-09-28T03:00:15.189Z,96429.59
2022-09-28T03:01:19.559Z,96429.31
2022-09-28T03:02:28.032Z,96429.66
2022-09-28T03:03:43.633Z,96427.81
2022-09-28T03:05:03.119Z,96430.44
2022-09-28T03:06:10.733Z,96426.56
2022-09-28T03:07:29.774Z,96421.28
2022-09-28T03:08:34.595Z,96425.41
2022-09-28T03:09:42.857Z,96408.41
2022-09-28T03:10:47.219Z,96417.09
2022-09-28T03:11:52.735Z,96415.16
2022-09-28T03:12:55.357Z,96410.63
2022-09-28T03:13:56.964Z,96410.69
2022-09-28T03:15:22.600Z,96411.81
2022-09-28T03:16:24.132Z,96405.81
2022-09-28T03:17:25.902Z,96412.56
2022-09-28T03:18:27.339Z,96417.47
2022-09-28T03:19:31.678Z,96410.56
2022-09-28T03:20:34.771Z,96415.16
2022-09-28T03:21:36.755Z,96412.16
2022-09-28T03:22:38.097Z,96408.31
2022-09-28T03:23:40.028Z,96410.22
2022-09-28T03:24:41.366Z,96409.09
2022-09-28T03:25:43.459Z,96416.28
2022-09-28T03:26:44.798Z,96417.78
2022-09-28T03:27:47.254Z,96424.22
2022-09-28T03:28:49.873Z,96437.88
2022-09-28T03:29:56.806Z,96469.31
2022-09-28T03:30:58.117Z,96474.53
2022-09-28T03:31:59.667Z,96475.66
2022-09-28T03:33:01.036Z,96482.91
2022-09-28T03:34:04.954Z,96473.84
2022-09-28T03:35:07.312Z,96468.81
2022-09-28T03:36:08.652Z,96469.38
2022-09-28T03:37:10.634Z,96470.81
2022-09-28T03:38:12.047Z,96470.56
2022-09-28T03:39:13.402Z,96470.50
2022-09-28T03:40:14.906Z,96470.84
2022-09-28T03:41:16.413Z,96474.19
2022-09-28T03:42:18.142Z,96472.28
2022-09-28T03:43:23.729Z,96470.09
2022-09-28T03:44:26.557Z,96476.06
2022-09-28T03:45:27.929Z,96471.88
2022-09-28T03:46:29.343Z,96473.00
2022-09-28T03:47:35.418Z,96472.94
2022-09-28T03:48:36.788Z,96468.00
2022-09-28T03:49:38.089Z,96470.69
2022-09-28T03:50:39.427Z,96466.94
2022-09-28T03:51:40.857Z,96473.34
2022-09-28T03:52:43.312Z,96459.69
2022-09-28T03:53:44.620Z,96465.75
2022-09-28T03:54:49.264Z,96467.63
2022-09-28T03:55:51.389Z,96469.06
2022-09-28T03:56:53.096Z,96465.25
2022-09-28T03:57:54.957Z,96471.66
2022-09-28T03:58:56.289Z,96472.34
2022-09-28T03:59:57.630Z,96465.53
2022-09-28T04:01:06.385Z,96470.81
2022-09-28T04:02:07.929Z,96468.56
2022-09-28T04:03:09.330Z,96468.56
2022-09-28T04:04:11.765Z,96467.06
2022-09-28T04:05:13.166Z,96457.94
2022-09-28T04:06:15.039Z,96462.44
2022-09-28T04:07:16.403Z,96459.03
2022-09-28T04:08:18.584Z,96468.84
2022-09-28T04:09:20.472Z,96471.50
2022-09-28T04:10:21.882Z,96469.28
2022-09-28T04:11:23.329Z,96470.38
2022-09-28T04:12:24.645Z,96464.00
2022-09-28T04:13:26.236Z,96467.31
2022-09-28T04:14:27.588Z,96464.69
2022-09-28T04:15:29.837Z,96468.94
2022-09-28T04:16:31.309Z,96468.94
2022-09-28T04:17:43.234Z,96467.81
2022-09-28T04:18:55.518Z,96467.91
2022-09-28T04:20:20.006Z,96461.09
2022-09-28T04:21:34.525Z,96457.94
2022-09-28T04:22:42.536Z,96457.59
2022-09-28T04:23:43.861Z,96456.38
2022-09-28T04:24:45.738Z,96467.06
2022-09-28T04:25:51.541Z,96465.88
2022-09-28T04:26:53.693Z,96462.03
2022-09-28T04:27:55.060Z,96463.22
2022-09-28T04:28:56.437Z,96460.59
2022-09-28T04:29:57.752Z,96462.88
2022-09-28T04:30:59.098Z,96456.81
2022-09-28T04:32:00.593Z,96459.38
2022-09-28T04:33:07.713Z,96454.84
2022-09-28T04:34:09.210Z,96456.75
2022-09-28T04:35:11.861Z,96447.63
2022-09-28T04:36:13.225Z,96461.25
2022-09-28T04:37:14.577Z,96460.06
2022-09-28T04:38:23.509Z,96461.63
2022-09-28T04:39:37.162Z,96470.22
2022-09-28T04:40:38.622Z,96466.06
2022-09-28T04:41:40.489Z,96474.00
2022-09-28T04:42:41.861Z,96475.88
2022-09-28T04:43:43.214Z,96469.47
2022-09-28T04:44:44.561Z,96474.00
2022-09-28T04:45:46.808Z,96478.16
2022-09-28T04:46:48.358Z,96473.22
2022-09-28T04:48:09.913Z,96478.94
2022-09-28T04:49:30.111Z,96470.59
2022-09-28T04:50:41.468Z,96473.72
2022-09-28T04:51:52.709Z,96473.66
2022-09-28T04:52:54.069Z,96474.31
2022-09-28T04:53:55.432Z,96480.81
2022-09-28T04:54:56.811Z,96477.06
2022-09-28T04:56:05.046Z,96479.69
2022-09-28T04:57:06.509Z,96488.75
2022-09-28T04:58:07.858Z,96483.81
2022-09-28T04:59:09.211Z,96478.44
2022-09-28T05:00:11.955Z,96485.69
2022-09-28T05:01:16.404Z,96478.09
2022-09-28T05:02:36.328Z,96478.84
2022-09-28T05:03:57.677Z,96484.91
2022-09-28T05:05:10.952Z,96481.50
2022-09-28T05:06:38.188Z,96478.53
2022-09-28T05:07:41.100Z,96483.47
2022-09-28T05:08:43.351Z,96479.97
2022-09-28T05:09:44.847Z,96484.91
2022-09-28T05:10:46.658Z,96486.78
2022-09-28T05:11:51.050Z,96481.94
2022-09-28T05:12:53.812Z,96487.91
2022-09-28T05:13:55.165Z,96481.50
2022-09-28T05:14:56.473Z,96492.78
2022-09-28T05:16:02.984Z,96495.06
2022-09-28T05:17:07.072Z,96492.00
2022-09-28T05:18:28.671Z,96491.56
2022-09-28T05:19:37.319Z,96495.75
2022-09-28T05:20:41.807Z,96499.19
2022-09-28T05:21:44.603Z,96486.28
2022-09-28T05:22:46.178Z,96489.69
2022-09-28T05:23:47.615Z,96489.63
2022-09-28T05:24:49.124Z,96494.56
2022-09-28T05:25:50.554Z,96490.03
2022-09-28T05:27:00.155Z,96494.56
2022-09-28T05:28:01.552Z,96488.06
2022-09-28T05:29:12.212Z,96490.41
2022-09-28T05:30:51.573Z,96494.84
2022-09-28T05:32:05.021Z,96497.56
2022-09-28T05:33:32.890Z,96492.19
2022-09-28T05:34:44.342Z,96494.06
2022-09-28T05:35:55.105Z,96491.44
2022-09-28T05:36:58.262Z,96494.84
2022-09-28T05:38:03.970Z,96488.78
2022-09-28T05:39:05.478Z,96494.38
2022-09-28T05:40:06.974Z,96482.03
2022-09-28T05:41:08.514Z,96481.59
2022-09-28T05:42:09.903Z,96480.09
2022-09-28T05:43:11.327Z,96472.16
2022-09-28T05:44:12.765Z,96474.78
2022-09-28T05:45:14.417Z,96469.06
2022-09-28T05:46:17.815Z,96470.94
2022-09-28T05:47:19.219Z,96481.97
2022-09-28T05:48:20.557Z,96482.28
2022-09-28T05:49:21.975Z,96487.56
2022-09-28T05:50:23.491Z,96485.69
2022-09-28T05:51:24.904Z,96489.91
2022-09-28T05:52:26.757Z,96495.19
2022-09-28T05:53:28.678Z,96504.56
2022-09-28T05:54:31.829Z,96497.81
2022-09-28T05:55:33.401Z,96494.84
2022-09-28T05:56:35.013Z,96497.88
2022-09-28T05:57:39.072Z,96500.13
2022-09-28T05:58:40.961Z,96496.72
2022-09-28T05:59:43.445Z,96501.56
2022-09-28T06:00:45.118Z,96499.69
2022-09-28T06:01:46.876Z,96509.50
2022-09-28T06:02:58.833Z,96512.91
2022-09-28T06:04:00.492Z,96507.63
2022-09-28T06:05:01.858Z,96511.06
2022-09-28T06:06:03.414Z,96511.72
2022-09-28T06:07:05.837Z,96509.84
2022-09-28T06:08:08.425Z,96516.66
2022-09-28T06:09:09.992Z,96517.44
2022-09-28T06:10:11.346Z,96511.72
2022-09-28T06:11:16.840Z,96520.16
2022-09-28T06:12:18.237Z,96523.16
2022-09-28T06:13:22.713Z,96513.75
2022-09-28T06:14:25.612Z,96520.59
2022-09-28T06:15:28.885Z,96529.31
2022-09-28T06:16:31.354Z,96521.69
2022-09-28T06:17:32.737Z,96523.94
2022-09-28T06:18:52.873Z,96522.47
2022-09-28T06:20:30.811Z,96518.38
2022-09-28T06:21:43.019Z,96518.38
2022-09-28T06:22:44.417Z,96518.38
2022-09-28T06:23:49.184Z,96516.16
2022-09-28T06:24:52.033Z,96516.59
2022-09-28T06:25:53.421Z,96519.56
2022-09-28T06:26:54.721Z,96527.16
2022-09-28T06:28:00.828Z,96521.44
2022-09-28T06:29:02.926Z,96526.41
2022-09-28T06:30:04.385Z,96520.41
2022-09-28T06:31:05.783Z,96528.03
2022-09-28T06:32:14.774Z,96530.66
2022-09-28T06:33:17.925Z,96532.63
2022-09-28T06:34:19.367Z,96535.25
2022-09-28T06:35:21.421Z,96539.44
2022-09-28T06:36:23.328Z,96538.66
2022-09-28T06:37:24.746Z,96543.28
2022-09-28T06:38:26.189Z,96545.59
2022-09-28T06:39:27.624Z,96544.13
2022-09-28T06:40:29.555Z,96537.63
2022-09-28T06:41:31.046Z,96544.91
2022-09-28T06:42:34.791Z,96548.31
2022-09-28T06:44:05.081Z,96545.41
2022-09-28T06:45:26.097Z,96550.28
2022-09-28T06:46:43.292Z,96554.47
2022-09-28T06:48:11.057Z,96546.53
2022-09-28T06:49:19.194Z,96549.94
2022-09-28T06:50:40.688Z,96557.19
2022-09-28T06:51:53.759Z,96562.81
2022-09-28T06:53:30.603Z,96563.25
2022-09-28T06:55:04.570Z,96551.66
2022-09-28T06:56:30.617Z,96558.13
2022-09-28T06:57:33.981Z,96563.41
2022-09-28T06:58:35.351Z,96557.84
2022-09-28T06:59:37.270Z,96556.72
2022-09-28T07:00:39.244Z,96559.06
2022-09-28T07:01:40.656Z,96561.00
2022-09-28T07:02:53.092Z,96556.19
2022-09-28T07:04:17.433Z,96559.72
2022-09-28T07:05:52.523Z,96565.88
2022-09-28T07:07:12.238Z,96567.91
2022-09-28T07:08:32.103Z,96557.81
2022-09-28T07:09:55.544Z,96560.03
2022-09-28T07:11:17.633Z,96558.72
2022-09-28T07:12:24.328Z,96570.16
2022-09-28T07:13:49.954Z,96574.84
2022-09-28T07:14:54.172Z,96577.16
2022-09-28T07:15:55.941Z,96569.25
2022-09-28T07:17:12.727Z,96575.00
2022-09-28T07:18:15.920Z,96578.81
2022-09-28T07:19:18.005Z,96585.69
2022-09-28T07:20:19.858Z,96577.38
2022-09-28T07:21:29.588Z,96580.44
2022-09-28T07:22:42.302Z,96582.66
2022-09-28T07:23:53.373Z,96591.50
2022-09-28T07:24:58.191Z,96589.38
2022-09-28T07:26:37.818Z,96590.91
2022-09-28T07:27:46.822Z,96604.84
2022-09-28T07:29:22.438Z,96591.25
2022-09-28T07:30:35.320Z,96598.59
2022-09-28T07:31:44.885Z,96603.53
2022-09-28T07:33:07.413Z,96597.53
2022-09-28T07:34:30.453Z,96598.78
2022-09-28T07:35:50.328Z,96606.06
2022-09-28T07:36:51.633Z,96605.34
2022-09-28T07:38:00.219Z,96613.72
2022-09-28T07:39:01.993Z,96615.25
2022-09-28T07:40:04.619Z,96612.53
2022-09-28T07:41:08.649Z,96618.31
2022-09-28T07:42:10.658Z,96611.97
2022-09-28T07:43:12.112Z,96618.53
2022-09-28T07:44:13.605Z,96617.41
2022-09-28T07:45:15.059Z,96617.75
2022-09-28T07:46:16.485Z,96616.97
2022-09-28T07:47:35.208Z,96628.72
2022-09-28T07:49:09.749Z,96625.28
2022-09-28T07:50:29.049Z,96629.84
2022-09-28T07:51:54.194Z,96630.97
2022-09-28T07:53:18.786Z,96638.19
2022-09-28T07:54:29.860Z,96637.03
2022-09-28T07:56:00.452Z,96643.50
2022-09-28T07:57:10.576Z,96641.28
2022-09-28T07:58:32.306Z,96635.97
2022-09-28T07:59:44.460Z,96638.69
2022-09-28T08:01:08.877Z,96631.16
2022-09-28T08:02:10.890Z,96638.28
2022-09-28T08:03:12.333Z,96639.47
2022-09-28T08:04:13.691Z,96643.97
2022-09-28T08:05:16.759Z,96643.72
2022-09-28T08:06:18.083Z,96647.06
2022-09-28T08:07:23.687Z,96644.91
2022-09-28T08:08:33.334Z,96646.50
2022-09-28T08:09:34.703Z,96649.91
2022-09-28T08:12:19.387Z,96651.59
2022-09-28T08:13:31.933Z,96648.19
2022-09-28T08:14:45.220Z,96648.22
2022-09-28T08:15:49.409Z,96657.16
2022-09-28T08:16:57.077Z,96645.78
2022-09-28T08:18:34.701Z,96650.59
2022-09-28T08:19:36.137Z,96658.97
2022-09-28T08:20:37.490Z,96651.72
2022-09-28T08:21:38.824Z,96651.50
2022-09-28T08:22:40.120Z,96645.81
2022-09-28T08:23:43.376Z,96655.59
2022-09-28T08:24:46.126Z,96656.81
2022-09-28T08:25:48.086Z,96652.91
2022-09-28T08:26:49.557Z,96656.69
2022-09-28T08:27:52.237Z,96657.50
2022-09-28T08:28:54.129Z,96658.34
2022-09-28T08:30:14.237Z,96658.00
2022-09-28T08:31:20.914Z,96658.00
2022-09-28T08:32:48.509Z,96657.63
2022-09-28T08:34:09.151Z,96666.00
2022-09-28T08:35:29.387Z,96666.47
2022-09-28T08:36:46.365Z,96668.25
2022-09-28T08:38:26.106Z,96666.28
2022-09-28T08:39:46.245Z,96668.25
2022-09-28T08:41:14.325Z,96671.31
2022-09-28T08:42:42.905Z,96661.47
2022-09-28T08:44:11.325Z,96665.16
2022-09-28T08:45:33.115Z,96657.34
2022-09-28T08:46:44.059Z,96668.84
2022-09-28T08:48:06.141Z,96671.28
2022-09-28T08:49:25.469Z,96670.44
2022-09-28T08:50:53.672Z,96675.53
2022-09-28T08:52:13.645Z,96677.88
2022-09-28T08:53:37.731Z,96674.00
2022-09-28T08:54:56.623Z,96666.13
2022-09-28T08:56:10.502Z,96683.41
2022-09-28T08:57:14.601Z,96681.28
2022-09-28T08:58:27.627Z,96683.31
2022-09-28T08:59:37.119Z,96684.47
2022-09-28T09:00:51.385Z,96685.00
2022-09-28T09:01:59.392Z,96686.59
2022-09-28T09:03:06.407Z,96691.66
2022-09-28T09:04:09.405Z,96690.16
2022-09-28T09:05:39.891Z,96686.41
2022-09-28T09:07:04.106Z,96700.56
2022-09-28T09:08:29.258Z,96689.91
2022-09-28T09:09:46.022Z,96690.69
2022-09-28T09:10:47.376Z,96696.13
2022-09-28T09:11:57.074Z,96694.25
2022-09-28T09:13:04.402Z,96692.88
2022-09-28T09:14:17.712Z,96699.13
2022-09-28T09:15:19.138Z,96700.72
2022-09-28T09:16:26.473Z,96702.75
2022-09-28T09:18:02.093Z,96694.97
2022-09-28T09:19:15.811Z,96701.63
2022-09-28T09:20:55.748Z,96700.44
2022-09-28T09:22:08.635Z,96699.13
2022-09-28T09:23:17.307Z,96702.91
2022-09-28T09:24:22.030Z,96706.66
2022-09-28T09:25:23.386Z,96702.81
2022-09-28T09:26:35.000Z,96706.22
2022-09-28T09:28:05.642Z,96712.53
2022-09-28T09:29:13.116Z,96714.72
2022-09-28T09:30:21.677Z,96714.53
2022-09-28T09:31:34.279Z,96716.09
2022-09-28T09:32:38.721Z,96716.63
2022-09-28T09:33:42.854Z,96718.16
2022-09-28T09:35:02.639Z,96723.22
2022-09-28T09:36:41.368Z,96718.66
2022-09-28T09:38:25.758Z,96719.31
2022-09-28T09:40:16.761Z,96717.63
2022-09-28T09:41:39.529Z,96729.00
2022-09-28T09:42:59.231Z,96724.69
2022-09-28T09:44:35.610Z,96728.88
2022-09-28T09:46:23.766Z,96731.19
2022-09-28T09:47:36.660Z,96728.63
2022-09-28T09:49:01.635Z,96729.19
2022-09-28T09:50:09.014Z,96730.34
2022-09-28T09:51:30.845Z,96734.97
2022-09-28T09:53:42.114Z,96729.13
2022-09-28T09:55:07.937Z,96739.34
2022-09-28T09:56:45.019Z,96726.25
2022-09-28T09:58:17.026Z,96731.69
2022-09-28T09:59:23.226Z,96734.44
2022-09-28T10:00:50.251Z,96731.75
2022-09-28T10:02:26.354Z,96728.59
2022-09-28T10:03:39.465Z,96735.78
2022-09-28T10:04:48.917Z,96732.75
2022-09-28T10:06:07.819Z,96725.41
2022-09-28T10:07:14.247Z,96733.44
2022-09-28T10:08:18.442Z,96729.34
2022-09-28T10:09:23.441Z,96725.22
2022-09-28T10:10:24.717Z,96725.63
2022-09-28T10:11:31.237Z,96729.47
2022-09-28T10:12:33.493Z,96734.09
2022-09-28T10:13:35.702Z,96733.78
2022-09-28T10:14:42.526Z,96727.06
2022-09-28T10:15:44.289Z,96728.31
2022-09-28T10:17:02.211Z,96733.25
2022-09-28T10:18:22.730Z,96732.50
2022-09-28T10:19:43.266Z,96724.13
2022-09-28T10:21:03.185Z,96731.00
2022-09-28T10:22:16.718Z,96736.19
2022-09-28T10:23:26.626Z,96740.03
2022-09-28T10:24:30.491Z,96731.59
2022-09-28T10:25:33.610Z,96721.75
2022-09-28T10:26:40.330Z,96733.13
2022-09-28T10:27:47.212Z,96737.31
2022-09-28T10:28:54.113Z,96735.78
2022-09-28T10:29:57.628Z,96740.81
2022-09-28T10:30:59.125Z,96732.13
2022-09-28T10:32:01.126Z,96732.88
2022-09-28T10:33:28.649Z,96733.69
2022-09-28T10:34:31.142Z,96731.53
2022-09-28T10:35:42.576Z,96728.94
2022-09-28T10:37:06.400Z,96729.34
2022-09-28T10:38:21.823Z,96731.53
2022-09-28T10:39:50.800Z,96731.22
2022-09-28T10:40:53.944Z,96733.00
2022-09-28T10:42:02.804Z,96732.53
2022-09-28T10:43:24.829Z,96737.06
2022-09-28T10:44:32.613Z,96731.91
2022-09-28T10:45:39.006Z,96734.28
2022-09-28T10:46:40.604Z,96727.34
2022-09-28T10:47:47.368Z,96728.25
2022-09-28T10:48:59.281Z,96732.03
2022-09-28T10:50:16.454Z,96733.19
2022-09-28T10:51:18.768Z,96729.00
2022-09-28T10:52:31.297Z,96730.41
2022-09-28T10:53:34.029Z,96729.56
2022-09-28T10:54:53.946Z,96736.03
2022-09-28T10:55:58.822Z,96732.38
2022-09-28T10:57:00.434Z,96734.28
2022-09-28T10:58:23.982Z,96734.28
2022-09-28T10:59:31.033Z,96732.81
2022-09-28T11:01:13.308Z,96736.59
2022-09-28T11:02:24.417Z,96726.72
2022-09-28T11:03:29.597Z,96737.44
2022-09-28T11:04:49.513Z,96735.19
2022-09-28T11:05:59.366Z,96734.44
2022-09-28T11:07:01.656Z,96733.69
2022-09-28T11:08:06.404Z,96734.72
2022-09-28T11:09:29.859Z,96724.25
2022-09-28T11:10:34.978Z,96732.56
2022-09-28T11:11:44.190Z,96726.97
2022-09-28T11:12:47.438Z,96728.88
2022-09-28T11:13:53.553Z,96728.63
2022-09-28T11:15:00.961Z,96727.47
2022-09-28T11:16:02.417Z,96728.63
2022-09-28T11:17:24.358Z,96734.38
2022-09-28T11:18:25.752Z,96730.59
2022-09-28T11:19:28.398Z,96733.25
2022-09-28T11:20:31.877Z,96729.06
2022-09-28T11:21:42.582Z,96725.53
2022-09-28T11:22:45.045Z,96722.59
2022-09-28T11:24:00.493Z,96725.69
2022-09-28T11:25:18.864Z,96727.69
2022-09-28T11:26:21.692Z,96734.63
2022-09-28T11:27:24.757Z,96724.03
2022-09-28T11:28:29.462Z,96723.97
2022-09-28T11:29:36.948Z,96727.84
2022-09-28T11:30:56.480Z,96729.34
2022-09-28T11:32:16.033Z,96729.34
2022-09-28T11:33:42.240Z,96734.63
2022-09-28T11:35:05.492Z,96730.81
2022-09-28T11:36:13.288Z,96736.53
2022-09-28T11:37:17.491Z,96727.44
2022-09-28T11:38:39.426Z,96735.50
2022-09-28T11:40:27.763Z,96733.69
2022-09-28T11:41:32.110Z,96730.63
2022-09-28T11:42:56.097Z,96730.31
2022-09-28T11:44:11.271Z,96729.59
2022-09-28T11:45:27.358Z,96728.50
2022-09-28T11:46:33.778Z,96722.34
2022-09-28T11:47:46.580Z,96724.59
2022-09-28T11:48:52.872Z,96720.81
2022-09-28T11:50:00.999Z,96723.81
2022-09-28T11:51:06.086Z,96719.63
2022-09-28T11:52:10.924Z,96720.69
2022-09-28T11:53:16.330Z,96721.84
2022-09-28T11:54:27.277Z,96717.19
2022-09-28T11:55:34.803Z,96722.50
2022-09-28T11:56:38.909Z,96715.59
2022-09-28T11:57:42.509Z,96712.19
2022-09-28T11:58:46.892Z,96714.50
2022-09-28T11:59:49.414Z,96713.38
2022-09-28T12:00:54.356Z,96710.06
2022-09-28T12:02:10.108Z,96713.88
2022-09-28T12:03:21.308Z,96710.06
2022-09-28T12:04:37.355Z,96704.34
2022-09-28T12:05:42.787Z,96706.53
2022-09-28T12:06:49.462Z,96708.38
2022-09-28T12:07:57.532Z,96711.44
2022-09-28T12:09:40.522Z,96714.91
2022-09-28T12:10:56.664Z,96709.94
2022-09-28T12:12:33.364Z,96710.75
2022-09-28T12:13:41.760Z,96705.91
2022-09-28T12:14:45.447Z,96714.72
2022-09-28T12:17:38.856Z,96722.00
2022-09-28T12:20:25.261Z,96716.69
2022-09-28T12:21:58.860Z,96717.06
2022-09-28T12:23:11.163Z,96709.09
2022-09-28T12:24:21.368Z,96713.25
2022-09-28T12:25:23.115Z,96720.94
2022-09-28T12:26:50.849Z,96707.63
2022-09-28T12:27:59.850Z,96707.53
2022-09-28T12:29:04.301Z,96705.28
2022-09-28T12:30:14.458Z,96711.03
2022-09-28T12:31:19.812Z,96705.34
2022-09-28T12:32:27.096Z,96711.84
2022-09-28T12:33:28.412Z,96711.44
2022-09-28T12:34:29.813Z,96707.63
2022-09-28T12:35:39.829Z,96708.75
2022-09-28T12:36:49.501Z,96704.19
2022-09-28T12:37:54.472Z,96701.19
2022-09-28T12:39:17.687Z,96702.31
2022-09-28T12:40:27.642Z,96709.53
2022-09-28T12:41:41.340Z,96708.78
2022-09-28T12:43:01.295Z,96701.53
2022-09-28T12:44:24.924Z,96710.38
2022-09-28T12:45:47.892Z,96713.78
2022-09-28T12:47:17.170Z,96710.03
2022-09-28T12:48:21.246Z,96715.41
2022-09-28T12:50:57.346Z,96711.22
2022-09-28T12:52:04.420Z,96711.25
2022-09-28T12:53:20.757Z,96710.94
2022-09-28T12:54:40.953Z,96710.25
2022-09-28T12:56:01.295Z,96711.00
2022-09-28T12:57:21.531Z,96706.44
2022-09-28T12:58:22.831Z,96710.66
2022-09-28T12:59:29.625Z,96705.78
2022-09-28T13:00:43.290Z,96708.84
2022-09-28T13:01:47.634Z,96707.72
2022-09-28T13:02:49.073Z,96710.22
2022-09-28T13:03:53.500Z,96712.06
2022-09-28T13:05:13.242Z,96705.22
2022-09-28T13:06:25.575Z,96707.88
2022-09-28T13:07:35.807Z,96713.59
2022-09-28T13:08:44.199Z,96709.41
2022-09-28T13:10:24.149Z,96711.72
2022-09-28T13:11:47.869Z,96712.13
2022-09-28T13:12:49.182Z,96709.03
2022-09-28T13:14:04.721Z,96710.22
2022-09-28T13:15:17.030Z,96713.25
2022-09-28T13:16:30.518Z,96708.31
2022-09-28T13:17:47.253Z,96704.13
2022-09-28T13:18:51.857Z,96706.72
2022-09-28T13:20:03.736Z,96700.63
2022-09-28T13:21:05.043Z,96704.47
2022-09-28T13:22:24.553Z,96708.66
2022-09-28T13:23:28.706Z,96698.38
2022-09-28T13:24:33.628Z,96701.78
2022-09-28T13:25:35.975Z,96692.69
2022-09-28T13:26:40.142Z,96696.16
2022-09-28T13:27:45.978Z,96695.41
2022-09-28T13:28:48.097Z,96693.88
2022-09-28T13:29:50.729Z,96692.72
2022-09-28T13:30:53.309Z,96690.41
2022-09-28T13:31:56.394Z,96696.13
2022-09-28T13:32:58.967Z,96698.44
2022-09-28T13:34:01.562Z,96688.94
2022-09-28T13:35:03.031Z,96690.41
2022-09-28T13:36:24.343Z,96685.81